Time;durP1;ratioP1;P1;durP2;ratioP2;P2;SDS_P1;SDS_P2;PMS_P1;PMS_P2;Temp;Humidity;BMP_temperature;BMP_pressure;BME280_temperature;BME280_humidity;BME280_pressure;Samples;Min_cycle;Max_cycle;Signal;HPM_P1;HPM_P2
2022/01/12 00:01:06;;;;;;;42.17;15.77;;;;;;;16.56;39.62;103615.38;5114603;27;20483;-65
2022/01/12 00:03:33;;;;;;;43.00;15.57;;;;;;;16.96;39.03;103617.50;5113575;27;20619;-66
2022/01/12 00:05:59;;;;;;;40.60;15.17;;;;;;;16.84;39.46;103620.00;5114260;27;20046;-66
2022/01/12 00:08:25;;;;;;;50.17;16.53;;;;;;;17.35;39.08;103629.22;5132229;27;20109;-66
2022/01/12 00:10:51;;;;;;;43.63;16.83;;;;;;;17.45;38.39;103636.31;5113666;27;20509;-66
2022/01/12 00:13:17;;;;;;;45.33;15.00;;;;;;;16.09;39.96;103635.13;5132843;27;20490;-66
2022/01/12 00:15:42;;;;;;;41.53;15.63;;;;;;;16.87;40.00;103634.13;5128675;27;20020;-65
2022/01/12 00:18:07;;;;;;;43.00;14.63;;;;;;;17.16;39.21;103637.88;5123549;27;20600;-66
2022/01/12 00:20:33;;;;;;;41.93;16.73;;;;;;;17.31;39.03;103638.00;5114581;27;20491;-67
2022/01/12 00:22:59;;;;;;;46.27;15.13;;;;;;;17.09;39.30;103629.94;5132845;27;20487;-66
2022/01/12 00:25:29;;;;;;;47.33;16.70;;;;;;;17.30;39.31;103626.53;5110710;27;20072;-66
2022/01/12 00:33:23;;;;;;;39.43;14.17;;;;;;;15.54;41.95;103613.34;5126203;27;20581;-66
2022/01/12 00:35:50;;;;;;;41.67;13.10;;;;;;;16.13;40.68;103600.88;5113023;27;20023;-66
2022/01/12 00:38:18;;;;;;;40.23;15.03;;;;;;;16.21;41.08;103601.84;5113059;27;20486;-66
2022/01/12 00:40:47;;;;;;;37.00;13.40;;;;;;;15.24;42.87;103605.00;5132601;27;20079;-66
2022/01/12 00:43:14;;;;;;;36.60;13.83;;;;;;;15.13;42.71;103614.50;5131857;27;20031;-66
2022/01/12 00:45:45;;;;;;;46.43;14.07;;;;;;;16.35;40.40;103608.16;5112028;27;20390;-66
2022/01/12 00:48:11;;;;;;;48.77;14.80;;;;;;;16.02;41.45;103628.03;5127885;27;20031;-66
2022/01/12 00:50:37;;;;;;;44.13;14.67;;;;;;;16.49;40.13;103623.25;5114129;27;20044;-66
2022/01/12 00:53:06;;;;;;;41.57;14.00;;;;;;;16.28;40.54;103628.31;5131495;27;20027;-66
2022/01/12 00:55:33;;;;;;;38.80;13.37;;;;;;;16.13;40.66;103629.88;5111138;27;20482;-65
2022/01/12 00:57:58;;;;;;;41.33;13.70;;;;;;;15.67;42.06;103632.84;5100941;27;20474;-66
2022/01/12 01:00:26;;;;;;;41.93;15.00;;;;;;;15.42;42.63;103633.38;5112856;27;20022;-66
2022/01/12 01:02:53;;;;;;;38.73;13.73;;;;;;;16.52;39.95;103629.41;5113475;27;20110;-65
2022/01/12 01:05:21;;;;;;;40.17;13.30;;;;;;;16.79;39.75;103620.84;5112958;27;20015;-66
2022/01/12 01:07:48;;;;;;;44.23;13.50;;;;;;;15.42;42.08;103625.47;5112767;27;20019;-66
2022/01/12 01:10:21;;;;;;;45.40;14.50;;;;;;;16.03;41.95;103631.53;5113290;27;20078;-66
2022/01/12 01:12:47;;;;;;;40.43;13.47;;;;;;;15.85;41.42;103613.75;5131377;27;20440;-66
2022/01/12 01:15:17;;;;;;;37.13;12.00;;;;;;;15.86;40.95;103615.53;5113182;27;20027;-66
2022/01/12 01:25:36;;;;;;;33.50;12.07;;;;;;;14.50;44.29;103608.19;5129637;27;20053;-66
2022/01/12 01:28:03;;;;;;;37.73;13.17;;;;;;;15.23;42.73;103602.38;5096607;27;20023;-66
2022/01/12 01:30:29;;;;;;;36.80;14.57;;;;;;;14.85;42.86;103595.66;5112781;27;20054;-66
2022/01/12 01:32:57;;;;;;;38.03;14.23;;;;;;;15.37;42.15;103600.81;5112971;27;20023;-66
2022/01/12 01:35:27;;;;;;;39.97;13.90;;;;;;;15.26;42.43;103602.41;5130123;27;20030;-66
2022/01/12 01:37:52;;;;;;;35.20;12.83;;;;;;;15.45;41.28;103608.81;5116152;27;20034;-66
2022/01/12 01:40:17;;;;;;;32.23;11.97;;;;;;;15.70;40.88;103615.31;5131458;27;20019;-66
2022/01/12 01:53:29;;;;;;;37.80;13.00;;;;;;;16.24;39.89;103652.03;5131389;27;20038;-66
2022/01/12 01:55:55;;;;;;;38.73;15.30;;;;;;;16.27;39.96;103662.63;5126060;27;20030;-66
2022/01/12 01:58:20;;;;;;;39.43;13.70;;;;;;;16.41;40.51;103668.91;5099089;27;20035;-66
2022/01/12 02:00:46;;;;;;;38.73;14.23;;;;;;;16.74;39.51;103670.09;5130968;27;20026;-66
2022/01/12 02:03:11;;;;;;;41.93;14.83;;;;;;;16.72;38.74;103669.22;5129799;27;20023;-66
2022/01/12 02:05:41;;;;;;;36.40;13.60;;;;;;;17.02;38.82;103675.69;5111429;28;20022;-66
2022/01/12 02:08:07;;;;;;;35.27;14.03;;;;;;;16.45;40.22;103686.56;5095901;27;20019;-67
2022/01/12 02:10:32;;;;;;;35.80;14.23;;;;;;;16.10;40.50;103689.69;5111526;27;20091;-66
2022/01/12 02:12:58;;;;;;;40.10;14.43;;;;;;;15.72;40.99;103697.06;5112179;27;20505;-66
2022/01/12 02:15:25;;;;;;;37.60;14.10;;;;;;;16.92;39.54;103714.31;5110761;27;20475;-66
2022/01/12 02:18:11;;;;;;;32.67;13.17;;;;;;;15.76;41.68;103726.13;5091666;28;20031;-66
2022/01/12 02:35:33;;;;;;;37.10;13.87;;;;;;;17.54;38.74;103735.09;5130760;27;20107;-66
2022/01/12 02:40:32;;;;;;;42.50;13.60;;;;;;;17.51;38.64;103748.28;5109826;28;20495;-66
2022/01/12 02:51:07;;;;;;;39.40;13.97;;;;;;;16.94;38.72;103748.72;5123614;28;20037;-66
2022/01/12 02:53:43;;;;;;;38.13;15.00;;;;;;;17.54;39.13;103745.66;5096795;28;20375;-66
2022/01/12 02:56:12;;;;;;;43.10;15.00;;;;;;;17.69;38.84;103735.16;5111835;28;20031;-66
2022/01/12 02:58:39;;;;;;;38.63;15.03;;;;;;;17.56;39.38;103733.34;5110736;28;20042;-66
2022/01/12 03:03:51;;;;;;;34.17;14.67;;;;;;;17.51;38.46;103727.13;5130328;28;20042;-66
2022/01/12 03:06:21;;;;;;;36.77;14.77;;;;;;;17.30;39.30;103736.69;5112359;27;20107;-66
2022/01/12 03:08:48;;;;;;;39.87;13.90;;;;;;;16.84;40.04;103736.22;5115995;27;20125;-66
2022/01/12 03:11:16;;;;;;;36.47;14.63;;;;;;;17.93;37.67;103736.25;5115182;27;20058;-66
2022/01/12 03:13:42;;;;;;;37.33;14.23;;;;;;;17.60;38.20;103714.84;5114552;27;20121;-66
2022/01/12 03:16:15;;;;;;;35.33;15.40;;;;;;;17.28;39.38;103718.16;5115393;27;20212;-66
2022/01/12 03:18:42;;;;;;;39.37;16.27;;;;;;;17.01;39.21;103713.53;5133654;27;20363;-68
2022/01/12 03:21:09;;;;;;;36.40;13.83;;;;;;;17.12;39.15;103711.88;5122540;27;20063;-66
2022/01/12 03:23:34;;;;;;;38.93;15.40;;;;;;;16.88;40.12;103701.94;5097583;27;20058;-66
2022/01/12 03:26:00;;;;;;;42.77;15.90;;;;;;;17.49;38.72;103716.56;5115916;27;20067;-66
2022/01/12 03:28:25;;;;;;;41.57;14.80;;;;;;;17.55;38.46;103721.00;5112475;27;20488;-66
2022/01/12 03:31:09;;;;;;;44.83;16.17;;;;;;;17.98;37.80;103726.53;5133768;27;20019;-66
2022/01/12 03:38:59;;;;;;;43.83;17.80;;;;;;;17.18;39.43;103752.44;5120618;27;20100;-66
2022/01/12 03:41:29;;;;;;;45.23;17.10;;;;;;;17.23;39.16;103750.72;5132588;27;20031;-66
2022/01/12 03:43:56;;;;;;;44.13;15.47;;;;;;;16.90;39.93;103744.28;5133173;27;20093;-66
2022/01/12 03:46:26;;;;;;;43.50;16.13;;;;;;;17.43;39.27;103751.78;5132730;27;20027;-66
2022/01/12 03:48:51;;;;;;;44.37;16.13;;;;;;;17.17;39.93;103759.47;5114032;27;20110;-66
2022/01/12 03:51:17;;;;;;;44.47;16.27;;;;;;;17.21;39.60;103770.97;5114896;27;20183;-66
2022/01/12 03:53:42;;;;;;;44.27;14.70;;;;;;;16.47;41.00;103767.53;5133112;27;20027;-66
2022/01/12 03:56:08;;;;;;;42.77;15.20;;;;;;;17.27;39.75;103769.25;5113128;27;20031;-66
2022/01/12 03:58:34;;;;;;;44.40;16.10;;;;;;;17.65;38.76;103775.69;5109404;27;20031;-66
2022/01/12 04:00:59;;;;;;;43.73;16.70;;;;;;;17.99;37.49;103770.66;5133478;27;20027;-66
2022/01/12 04:03:26;;;;;;;47.30;16.23;;;;;;;17.94;38.52;103777.69;5113804;27;20100;-66
2022/01/12 04:08:21;;;;;;;50.33;17.67;;;;;;;17.85;38.25;103772.31;5132904;27;20042;-66
2022/01/12 04:10:46;;;;;;;47.20;16.77;;;;;;;17.65;39.10;103765.13;5132475;27;20023;-66
2022/01/12 04:13:13;;;;;;;49.83;16.87;;;;;;;17.88;38.25;103772.34;5114010;27;20471;-66
2022/01/12 04:15:39;;;;;;;49.00;14.57;;;;;;;18.06;38.32;103756.56;5112520;27;20027;-66
2022/01/12 04:18:04;;;;;;;55.77;17.80;;;;;;;18.70;36.74;103749.75;5113040;27;20083;-66
2022/01/12 04:20:30;;;;;;;41.80;15.43;;;;;;;18.60;37.04;103751.50;5132456;27;20130;-66
2022/01/12 04:25:39;;;;;;;47.57;15.77;;;;;;;18.37;37.44;103751.41;5131737;27;20104;-66
2022/01/12 04:28:04;;;;;;;43.73;16.70;;;;;;;18.01;38.15;103765.38;5114117;27;20480;-66
2022/01/12 04:30:30;;;;;;;50.47;16.93;;;;;;;17.75;38.60;103766.97;5113307;27;20512;-66
2022/01/12 04:32:55;;;;;;;47.47;16.37;;;;;;;18.24;38.29;103770.78;5132635;27;20080;-66
2022/01/12 04:35:24;;;;;;;51.13;16.07;;;;;;;17.86;38.74;103779.34;5130552;27;20031;-66
2022/01/12 04:37:50;;;;;;;50.67;16.67;;;;;;;17.53;38.90;103783.53;5113326;27;20049;-66
2022/01/12 04:40:16;;;;;;;46.17;16.67;;;;;;;17.28;39.32;103781.63;5125972;27;20023;-66
2022/01/12 04:42:42;;;;;;;41.87;16.13;;;;;;;17.32;39.14;103785.16;5113985;27;21000;-66
2022/01/12 04:45:31;;;;;;;53.33;16.13;;;;;;;17.40;39.44;103788.72;5127981;27;20039;-67
2022/01/12 04:48:08;;;;;;;44.67;15.23;;;;;;;17.88;38.80;103772.34;5114075;27;20776;-66
2022/01/12 04:50:37;;;;;;;54.30;17.57;;;;;;;17.84;38.60;103759.97;5113703;27;20038;-66
2022/01/12 04:53:04;;;;;;;54.33;16.87;;;;;;;16.97;39.78;103754.00;5113168;27;20094;-66
2022/01/12 04:55:30;;;;;;;60.33;16.10;;;;;;;16.96;39.30;103752.25;5110662;27;20029;-66
2022/01/12 04:57:55;;;;;;;52.07;15.37;;;;;;;17.56;38.46;103750.09;5112760;27;20030;-66
2022/01/12 05:00:22;;;;;;;55.43;15.70;;;;;;;17.72;38.50;103756.38;5113191;27;20076;-67
2022/01/12 05:13:31;;;;;;;53.43;15.37;;;;;;;17.64;38.22;103758.97;5130649;27;20563;-66
2022/01/12 05:16:06;;;;;;;61.20;16.90;;;;;;;17.72;37.73;103766.06;5112947;27;20068;-66
2022/01/12 05:18:33;;;;;;;52.03;14.27;;;;;;;17.48;38.50;103774.72;5132033;27;20019;-66
2022/01/12 05:21:00;;;;;;;59.13;14.33;;;;;;;17.54;38.42;103778.25;5112035;27;20039;-66
2022/01/12 05:23:26;;;;;;;58.53;14.47;;;;;;;18.00;36.85;103785.66;5130891;27;20410;-66
2022/01/12 05:25:52;;;;;;;59.33;14.73;;;;;;;17.65;37.83;103796.84;5112630;27;20026;-66
2022/01/12 05:28:19;;;;;;;62.57;16.60;;;;;;;17.90;37.32;103807.59;5131474;27;20497;-67
2022/01/12 05:30:45;;;;;;;58.20;15.63;;;;;;;17.46;38.87;103806.41;5131740;27;20443;-66
2022/01/12 05:33:11;;;;;;;56.47;15.80;;;;;;;17.55;38.41;103816.19;5111468;27;20023;-66
2022/01/12 05:35:37;;;;;;;54.37;14.97;;;;;;;17.75;38.21;103813.69;5112899;27;20034;-66
2022/01/12 05:38:04;;;;;;;69.07;15.80;;;;;;;17.90;37.69;103804.97;5131451;27;20491;-66
2022/01/12 05:40:31;;;;;;;59.43;15.07;;;;;;;18.21;37.41;103807.84;5129903;27;20462;-66
2022/01/12 05:42:59;;;;;;;42.30;15.90;;;;;;;17.74;38.60;103807.50;5112218;27;20033;-66
2022/01/12 05:45:25;;;;;;;64.97;14.30;;;;;;;17.97;38.00;103804.19;5130488;27;20421;-66
2022/01/12 05:50:18;;;;;;;60.80;13.33;;;;;;;18.22;37.74;103809.59;5131108;27;20068;-66
2022/01/12 05:52:43;;;;;;;46.43;13.27;;;;;;;17.85;38.22;103804.06;5130682;27;20567;-66
2022/01/12 05:55:10;;;;;;;49.87;11.67;;;;;;;17.10;39.55;103799.94;5110584;27;20106;-66
2022/01/12 05:57:36;;;;;;;41.90;13.03;;;;;;;17.19;39.06;103812.38;5130799;27;20031;-66
2022/01/12 06:00:06;;;;;;;49.83;13.43;;;;;;;17.37;38.57;103807.22;5130750;27;20027;-66
2022/01/12 06:02:31;;;;;;;53.67;12.10;;;;;;;17.27;38.13;103815.97;5112055;27;20034;-66
2022/01/12 06:04:57;;;;;;;38.83;10.77;;;;;;;17.66;38.07;103816.28;5111373;27;20031;-67
2022/01/12 06:07:23;;;;;;;34.03;10.70;;;;;;;17.29;38.71;103824.78;5130417;27;20060;-67
2022/01/12 06:09:48;;;;;;;33.67;12.03;;;;;;;17.51;38.50;103823.19;5111268;28;20057;-66
2022/01/12 06:12:13;;;;;;;30.20;12.80;;;;;;;17.60;37.82;103825.94;5101969;28;20027;-66
2022/01/12 06:14:39;;;;;;;39.20;11.03;;;;;;;17.74;37.41;103833.97;5094166;27;20359;-67
2022/01/12 06:17:05;;;;;;;39.27;10.20;;;;;;;16.86;39.04;103837.53;5129503;27;20027;-66
2022/01/12 06:19:30;;;;;;;30.77;10.77;;;;;;;17.57;37.03;103832.94;5130253;27;20088;-67
2022/01/12 06:21:56;;;;;;;35.40;10.47;;;;;;;17.35;38.13;103843.34;5105240;28;20051;-67
2022/01/12 06:24:21;;;;;;;36.43;9.97;;;;;;;17.51;37.81;103862.00;5093258;28;20031;-66
2022/01/12 06:26:47;;;;;;;32.67;8.73;;;;;;;16.48;38.49;103867.00;5130825;27;20038;-67
2022/01/12 06:31:47;;;;;;;32.80;8.73;;;;;;;16.45;39.16;103876.63;5120102;27;20019;-67
2022/01/12 06:34:13;;;;;;;30.40;11.03;;;;;;;16.25;40.30;103883.38;5091753;28;20118;-67
2022/01/12 06:36:39;;;;;;;37.57;9.07;;;;;;;15.86;41.05;103884.56;5125519;27;20213;-66
2022/01/12 06:39:09;;;;;;;35.07;9.40;;;;;;;16.74;39.32;103883.16;5111404;28;20161;-66
2022/01/12 06:41:34;;;;;;;34.27;10.50;;;;;;;16.99;38.66;103887.00;5108240;28;20506;-67
2022/01/12 06:44:00;;;;;;;36.07;11.07;;;;;;;16.75;38.69;103885.81;5097812;28;20027;-67
2022/01/12 06:46:29;;;;;;;33.10;12.07;;;;;;;16.88;38.90;103875.41;5114945;27;20027;-66
2022/01/12 06:48:54;;;;;;;29.83;9.87;;;;;;;16.51;39.68;103883.75;5118768;27;20478;-67
2022/01/12 06:51:20;;;;;;;36.60;10.87;;;;;;;16.81;39.10;103878.84;5128397;27;20115;-66
2022/01/12 06:53:45;;;;;;;28.97;10.77;;;;;;;16.84;38.94;103884.16;5098866;28;20046;-67
2022/01/12 06:56:15;;;;;;;22.87;10.03;;;;;;;16.81;38.12;103884.13;5111683;27;20027;-66
2022/01/12 06:58:41;;;;;;;33.17;10.67;;;;;;;17.01;39.35;103890.56;5117907;27;20027;-67
2022/01/12 07:01:06;;;;;;;30.10;9.43;;;;;;;16.33;40.01;103896.69;5135851;27;20023;-66
2022/01/12 07:03:32;;;;;;;27.60;10.47;;;;;;;16.72;39.15;103903.38;5119032;27;20033;-67
2022/01/12 07:05:57;;;;;;;31.17;9.30;;;;;;;16.55;39.54;103904.03;5117310;27;20023;-66
2022/01/12 07:08:22;;;;;;;22.27;8.13;;;;;;;16.52;39.81;103905.78;5118385;27;20119;-67
2022/01/12 07:10:48;;;;;;;25.13;9.73;;;;;;;16.84;39.11;103913.22;5117135;27;20084;-66
2022/01/12 07:13:13;;;;;;;21.97;8.93;;;;;;;16.70;38.79;103919.19;5118095;27;20584;-66
2022/01/12 07:15:41;;;;;;;22.40;9.63;;;;;;;15.99;39.53;103923.47;5136626;27;20095;-66
2022/01/12 07:18:07;;;;;;;31.07;10.50;;;;;;;16.07;39.37;103924.47;5118413;27;20022;-66
2022/01/12 07:20:33;;;;;;;26.43;10.53;;;;;;;16.51;38.98;103925.97;5117220;27;20494;-66
2022/01/12 07:22:58;;;;;;;28.83;10.37;;;;;;;16.67;38.77;103929.75;5099232;28;20131;-67
2022/01/12 07:25:23;;;;;;;22.83;9.20;;;;;;;17.13;37.99;103930.34;5112440;27;20015;-66
2022/01/12 07:27:49;;;;;;;24.17;7.17;;;;;;;15.23;41.56;103939.63;5117295;27;20027;-66
2022/01/12 07:30:16;;;;;;;22.87;6.67;;;;;;;15.93;40.23;103939.19;5118895;27;20074;-66
2022/01/12 07:32:42;;;;;;;26.33;8.27;;;;;;;14.88;41.60;103942.44;5116966;27;20027;-66
2022/01/12 07:35:08;;;;;;;18.73;7.17;;;;;;;16.11;39.99;103934.22;5135504;27;20033;-67
2022/01/12 07:37:33;;;;;;;23.77;8.03;;;;;;;16.17;39.96;103940.44;5136940;27;20080;-67
2022/01/12 07:39:58;;;;;;;21.50;7.93;;;;;;;16.24;39.68;103939.69;5095671;27;20482;-67
2022/01/12 07:42:24;;;;;;;19.63;7.10;;;;;;;15.25;40.12;103945.84;5123214;27;20059;-67
2022/01/12 07:44:57;;;;;;;20.27;6.27;;;;;;;14.58;41.35;103954.03;5117006;27;20024;-67
2022/01/12 07:47:23;;;;;;;16.77;6.77;;;;;;;15.18;41.23;103957.09;5121738;27;20033;-67
2022/01/12 07:49:48;;;;;;;18.77;7.07;;;;;;;15.27;40.38;103963.44;5100085;27;20027;-66
2022/01/12 07:52:13;;;;;;;25.07;7.47;;;;;;;15.78;39.60;103960.88;5130597;27;20031;-66
2022/01/12 07:54:38;;;;;;;20.17;6.40;;;;;;;14.93;40.98;103964.47;5112316;27;20031;-67
2022/01/12 07:57:04;;;;;;;12.43;6.50;;;;;;;15.98;39.58;103958.63;5113818;27;20122;-66
2022/01/12 07:59:29;;;;;;;14.10;7.10;;;;;;;16.32;38.57;103959.16;5122247;27;20096;-66
2022/01/12 08:01:55;;;;;;;21.37;7.60;;;;;;;16.54;38.48;103962.13;5113449;27;20058;-66
2022/01/12 08:04:20;;;;;;;37.43;9.67;;;;;;;16.65;37.67;103963.19;5113447;27;20019;-67
2022/01/12 08:06:45;;;;;;;31.60;10.20;;;;;;;16.03;38.90;103966.59;5115226;27;20080;-66
2022/01/12 08:09:11;;;;;;;41.50;10.90;;;;;;;16.83;37.47;103977.47;5108075;27;20105;-67
2022/01/12 08:11:36;;;;;;;37.10;10.33;;;;;;;16.85;37.67;103975.75;5114401;27;20474;-66
2022/01/12 08:14:01;;;;;;;32.40;10.33;;;;;;;17.04;36.97;103980.44;5106945;28;20142;-66
2022/01/12 08:16:27;;;;;;;25.03;9.20;;;;;;;17.04;37.68;103993.66;5092588;28;20403;-66
2022/01/12 08:18:52;;;;;;;32.40;9.43;;;;;;;16.60;38.50;104000.06;5104029;27;20027;-66
2022/01/12 08:21:17;;;;;;;34.17;8.60;;;;;;;16.18;38.90;104008.19;5111051;28;20043;-66
2022/01/12 08:23:43;;;;;;;32.07;10.57;;;;;;;16.65;38.15;104005.44;5107810;28;20028;-66
2022/01/12 08:26:08;;;;;;;29.23;9.63;;;;;;;16.70;37.75;104000.19;5111942;28;20034;-67
2022/01/12 08:28:34;;;;;;;33.23;10.00;;;;;;;17.02;37.55;103998.06;5110252;28;20428;-66
2022/01/12 08:31:00;;;;;;;29.37;9.10;;;;;;;17.17;36.97;103993.81;5111234;28;20475;-66
2022/01/12 08:33:26;;;;;;;23.23;9.47;;;;;;;16.72;37.50;104006.38;5108624;28;20087;-67
2022/01/12 08:35:52;;;;;;;26.40;9.40;;;;;;;16.83;37.55;104003.91;5095770;28;20080;-66
2022/01/12 08:38:17;;;;;;;24.73;9.10;;;;;;;16.98;37.19;104004.16;5106650;28;20069;-66
2022/01/12 08:40:43;;;;;;;25.53;8.63;;;;;;;16.11;38.92;104013.38;5110009;28;20027;-67
2022/01/12 08:43:08;;;;;;;24.17;9.03;;;;;;;16.11;39.42;104017.75;5100744;28;20641;-67
2022/01/12 08:45:34;;;;;;;16.93;8.23;;;;;;;15.89;40.04;104029.69;5107595;28;20437;-66
2022/01/12 08:47:59;;;;;;;25.40;8.67;;;;;;;16.74;38.11;104026.66;5086971;28;20030;-67
2022/01/12 08:50:24;;;;;;;26.77;9.87;;;;;;;16.40;38.88;104035.81;5091853;28;20027;-66
2022/01/12 08:52:50;;;;;;;25.97;9.50;;;;;;;16.70;38.34;104034.53;5108747;28;20474;-66
2022/01/12 08:55:18;;;;;;;17.97;8.67;;;;;;;16.90;38.07;104037.53;5106135;28;20023;-66
2022/01/12 08:57:44;;;;;;;22.53;8.77;;;;;;;16.64;38.06;104040.63;5109339;28;20491;-66
2022/01/12 09:00:10;;;;;;;24.27;9.40;;;;;;;16.59;38.73;104048.44;5107799;28;20084;-66
2022/01/12 09:02:36;;;;;;;24.67;9.70;;;;;;;17.00;37.97;104047.34;5103987;28;20139;-66
2022/01/12 09:05:02;;;;;;;27.07;9.93;;;;;;;17.08;37.83;104047.44;5104236;28;20471;-66
2022/01/12 09:07:27;;;;;;;25.27;8.63;;;;;;;17.19;37.83;104055.53;5100081;28;20038;-67
2022/01/12 09:09:53;;;;;;;24.13;7.87;;;;;;;17.38;38.06;104052.25;5108882;28;20027;-67
2022/01/12 09:12:18;;;;;;;22.43;9.03;;;;;;;17.39;37.95;104059.31;5103059;28;20015;-67
2022/01/12 09:14:45;;;;;;;24.17;8.67;;;;;;;17.46;37.57;104061.16;5106621;28;20058;-67
2022/01/12 09:17:17;;;;;;;22.13;8.47;;;;;;;16.38;39.59;104067.47;5108329;28;20487;-68
2022/01/12 09:19:43;;;;;;;22.73;7.55;;;;;;;17.32;38.26;104060.09;5097210;27;20102;-67
2022/01/12 09:22:09;;;;;;;25.90;8.40;;;;;;;16.58;39.30;104069.56;5130758;27;20160;-67
2022/01/12 09:24:35;;;;;;;19.30;7.53;;;;;;;17.03;38.89;104065.00;5112659;27;20023;-66
2022/01/12 09:27:00;;;;;;;24.03;7.47;;;;;;;16.31;40.59;104077.91;5130014;27;20486;-66
2022/01/12 09:29:26;;;;;;;20.67;8.57;;;;;;;17.50;38.00;104085.00;5111636;27;20026;-66
2022/01/12 09:31:51;;;;;;;28.40;8.47;;;;;;;16.90;39.05;104095.66;5115640;27;20027;-67
2022/01/12 09:34:16;;;;;;;18.93;7.47;;;;;;;16.13;40.54;104099.56;5130345;27;20027;-66
2022/01/12 09:36:42;;;;;;;25.73;8.33;;;;;;;15.86;40.91;104109.63;5111517;27;20057;-66
2022/01/12 09:39:08;;;;;;;22.60;8.27;;;;;;;16.44;40.60;104101.94;5101319;28;20494;-66
2022/01/12 09:41:34;;;;;;;29.07;9.20;;;;;;;16.84;39.42;104100.78;5122709;27;20019;-66
2022/01/12 09:44:00;;;;;;;32.33;8.80;;;;;;;15.98;41.80;104109.00;5130867;27;20038;-66
2022/01/12 09:46:26;;;;;;;28.47;9.63;;;;;;;16.38;40.23;104093.00;5129859;27;20508;-66
2022/01/12 09:48:52;;;;;;;30.00;9.40;;;;;;;16.41;39.98;104106.25;5112302;27;20107;-66
2022/01/12 09:51:18;;;;;;;27.07;8.93;;;;;;;16.59;40.29;104110.94;5130276;27;20038;-66
2022/01/12 09:53:44;;;;;;;24.57;9.07;;;;;;;17.53;38.80;104109.72;5126949;27;20026;-66
2022/01/12 09:56:21;;;;;;;26.87;9.10;;;;;;;17.66;38.28;104109.88;5111341;27;20367;-67
2022/01/12 09:58:51;;;;;;;25.33;8.87;;;;;;;16.44;40.22;104122.13;5112749;27;20115;-66
2022/01/12 10:01:25;;;;;;;25.50;8.77;;;;;;;17.58;38.28;104112.41;5099071;28;20490;-66
2022/01/12 10:03:50;;;;;;;23.53;7.40;;;;;;;17.28;38.50;104111.13;5129456;27;20059;-67
2022/01/12 10:06:16;;;;;;;25.37;8.60;;;;;;;17.46;39.05;104114.03;5130800;27;20106;-66
2022/01/12 10:08:43;;;;;;;25.47;8.23;;;;;;;17.31;39.11;104124.44;5129603;27;20463;-66
2022/01/12 10:11:10;;;;;;;24.57;8.03;;;;;;;17.64;38.89;104118.69;5111702;28;20051;-66
2022/01/12 10:13:40;;;;;;;24.70;8.60;;;;;;;17.68;38.63;104119.63;5105418;27;20106;-67
2022/01/12 10:16:17;;;;;;;23.67;8.07;;;;;;;18.18;38.46;104117.56;5110301;27;20037;-67
2022/01/12 10:18:50;;;;;;;20.30;7.07;;;;;;;18.46;37.34;104114.28;5130338;27;20041;-66
2022/01/12 10:21:26;;;;;;;21.53;6.93;;;;;;;18.37;38.15;104122.16;5107807;28;20427;-66
2022/01/12 10:24:00;;;;;;;18.23;4.80;;;;;;;18.25;36.86;104127.31;5101409;28;20479;-66
2022/01/12 10:26:40;;;;;;;22.77;5.57;;;;;;;18.35;37.35;104105.34;5108324;28;20207;-66
2022/01/12 10:29:12;;;;;;;18.87;4.97;;;;;;;18.47;36.53;104108.09;5102253;28;20123;-66
2022/01/12 10:31:47;;;;;;;18.33;5.38;;;;;;;18.45;36.85;104093.06;5107970;28;20040;-66
2022/01/12 10:34:13;;;;;;;16.80;5.80;;;;;;;18.79;37.06;104098.63;5103433;28;20499;-66
2022/01/12 10:36:41;;;;;;;18.63;6.07;;;;;;;18.39;37.32;104103.63;5108005;28;20479;-66
2022/01/12 10:39:08;;;;;;;22.27;7.17;;;;;;;18.76;36.65;104103.91;5104544;28;20076;-67
2022/01/12 10:41:33;;;;;;;20.73;6.83;;;;;;;18.94;36.93;104101.41;5106221;28;20079;-66
2022/01/12 10:43:59;;;;;;;21.17;7.03;;;;;;;17.52;38.39;104107.06;5107417;28;20126;-66
2022/01/12 10:46:26;;;;;;;18.13;6.17;;;;;;;18.75;36.73;104110.09;5108437;28;20118;-66
2022/01/12 10:48:55;;;;;;;23.60;7.43;;;;;;;18.32;36.93;104105.31;5099470;28;20059;-66
2022/01/12 10:51:26;;;;;;;16.80;6.63;;;;;;;18.29;37.40;104102.66;5103092;28;20012;-66
2022/01/12 10:53:54;;;;;;;22.30;6.47;;;;;;;18.54;37.09;104102.88;5099152;28;20020;-66
2022/01/12 10:56:22;;;;;;;23.13;7.23;;;;;;;18.02;38.08;104114.72;5108117;28;20031;-67
2022/01/12 10:58:50;;;;;;;28.63;7.40;;;;;;;18.33;37.26;104128.28;5102656;28;20547;-66
2022/01/12 11:01:21;;;;;;;19.43;6.90;;;;;;;18.92;35.85;104136.75;5102590;28;20040;-66
2022/01/12 11:03:47;;;;;;;18.60;7.70;;;;;;;18.75;35.89;104124.22;5106998;28;20028;-66
2022/01/12 11:06:14;;;;;;;20.03;7.70;;;;;;;19.21;36.02;104113.06;5100992;28;20039;-66
2022/01/12 11:08:41;;;;;;;23.47;7.67;;;;;;;18.61;36.05;104115.28;5108150;28;20038;-66
2022/01/12 11:11:07;;;;;;;20.77;7.37;;;;;;;18.26;37.18;104118.50;5108641;28;20024;-66
2022/01/12 11:13:34;;;;;;;23.10;7.13;;;;;;;17.52;38.87;104125.59;5109992;28;20028;-66
2022/01/12 11:16:00;;;;;;;23.30;7.07;;;;;;;18.20;38.09;104121.09;5107598;28;20039;-66
2022/01/12 11:18:28;;;;;;;23.07;8.30;;;;;;;17.78;38.40;104110.03;5106703;28;20028;-66
2022/01/12 11:21:01;;;;;;;22.17;8.30;;;;;;;18.44;37.52;104102.78;5107916;28;20445;-66
2022/01/12 11:23:39;;;;;;;24.52;8.82;;;;;;;18.01;38.19;104099.72;5108249;28;20035;-67
2022/01/12 11:26:32;;;;;;;20.67;7.50;;;;;;;17.37;39.80;104098.06;5101749;28;20479;-66
2022/01/12 11:28:57;;;;;;;;;;;;;;;17.81;38.82;104100.34;5101427;28;20052;-66
2022/01/12 11:31:29;;;;;;;28.17;8.47;;;;;;;17.88;38.73;104095.13;5110025;28;19922;-66
2022/01/12 11:33:54;;;;;;;20.87;7.47;;;;;;;18.73;37.17;104091.53;5106943;28;20027;-66
2022/01/12 11:36:25;;;;;;;24.87;7.83;;;;;;;17.85;38.76;104087.19;5106375;28;20360;-66
2022/01/12 11:38:59;;;;;;;20.90;6.43;;;;;;;16.86;40.86;104093.78;5111405;28;20364;-66
2022/01/12 11:41:33;;;;;;;22.23;6.87;;;;;;;18.26;38.84;104076.16;5112370;28;20084;-66
2022/01/12 11:44:03;;;;;;;28.00;7.47;;;;;;;18.64;37.19;104078.19;5110227;28;20046;-66
2022/01/12 11:46:50;;;;;;;23.80;6.67;;;;;;;18.32;38.04;104076.19;5109247;28;20031;-66
2022/01/12 11:49:29;;;;;;;27.13;7.80;;;;;;;18.78;37.13;104065.94;5111421;28;20038;-67
2022/01/12 11:51:57;;;;;;;22.97;8.37;;;;;;;17.87;39.53;104066.91;5091715;28;20387;-66
2022/01/12 11:54:30;;;;;;;27.13;9.17;;;;;;;18.10;38.84;104075.97;5092194;28;20035;-67
2022/01/12 11:56:58;;;;;;;25.33;6.90;;;;;;;18.66;37.33;104076.47;5105443;28;20475;-66
2022/01/12 11:59:27;;;;;;;27.03;6.87;;;;;;;18.04;38.35;104083.88;5110882;28;20050;-66
2022/01/12 12:02:05;;;;;;;26.00;7.30;;;;;;;18.43;37.91;104085.09;5110851;28;20031;-66
2022/01/12 12:04:33;;;;;;;26.83;6.60;;;;;;;17.50;39.18;104082.34;5111270;28;20023;-67
2022/01/12 12:07:07;;;;;;;25.33;6.80;;;;;;;18.16;38.44;104084.88;5109198;28;20027;-66
2022/01/12 12:09:43;;;;;;;25.30;6.50;;;;;;;18.82;37.65;104077.44;5112508;27;20024;-66
2022/01/12 12:12:20;;;;;;;22.50;7.13;;;;;;;17.85;39.07;104081.88;5110134;28;20015;-66
2022/01/12 12:14:53;;;;;;;23.20;7.03;;;;;;;17.68;39.88;104074.66;5105874;28;20475;-66
2022/01/12 12:17:20;;;;;;;23.50;6.90;;;;;;;17.69;39.55;104065.81;5108845;28;20024;-67
2022/01/12 12:19:47;;;;;;;21.37;7.23;;;;;;;16.52;41.74;104073.00;5112475;27;20035;-67
2022/01/12 12:22:17;;;;;;;22.77;7.80;;;;;;;17.38;40.30;104081.34;5131827;27;20151;-66
2022/01/12 12:24:44;;;;;;;25.57;7.60;;;;;;;18.24;38.94;104072.59;5122901;27;20482;-67
2022/01/12 12:27:11;;;;;;;32.37;8.63;;;;;;;17.40;40.82;104066.34;5132092;27;20428;-66
2022/01/12 12:29:37;;;;;;;31.53;7.40;;;;;;;17.45;40.34;104064.66;5119104;27;20402;-66
2022/01/12 12:32:05;;;;;;;27.80;6.73;;;;;;;17.28;41.30;104058.28;5113824;27;20023;-67
2022/01/12 12:34:33;;;;;;;29.00;6.40;;;;;;;16.56;42.26;104069.53;5112482;27;20047;-67